Time;durP1;ratioP1;P1;durP2;ratioP2;P2;SDS_P1;SDS_P2;PMS_P1;PMS_P2;Temp;Humidity;BMP_temperature;BMP_pressure;BME280_temperature;BME280_humidity;BME280_pressure;Samples;Min_cycle;Max_cycle;Signal;HPM_P1;HPM_P2
2021/03/18 00:01:24;;;;;;;0.20;0.20;;;;;;;;;;5057189;28;20242;-72
2021/03/18 00:03:51;;;;;;;0.23;0.23;;;;;;;;;;5083986;28;20222;-72
2021/03/18 00:06:18;;;;;;;0.20;0.20;;;;;;;;;;5065510;28;20236;-72
2021/03/18 00:08:45;;;;;;;0.20;0.20;;;;;;;;;;5079925;28;20207;-72
2021/03/18 00:11:13;;;;;;;0.30;0.30;;;;;;;;;;5075108;28;20215;-74
2021/03/18 00:13:40;;;;;;;0.20;0.20;;;;;;;;;;5070503;28;20199;-72
2021/03/18 00:16:07;;;;;;;0.20;0.20;;;;;;;;;;5058797;28;20238;-73
2021/03/18 00:18:38;;;;;;;0.20;0.20;;;;;;;;;;5081491;28;20200;-72
2021/03/18 00:21:04;;;;;;;0.20;0.20;;;;;;;;;;5085488;28;20202;-73
2021/03/18 00:23:30;;;;;;;0.20;0.20;;;;;;;;;;5076261;28;20397;-73
2021/03/18 00:25:57;;;;;;;0.20;0.20;;;;;;;;;;5084362;28;20195;-72
2021/03/18 00:28:23;;;;;;;0.20;0.20;;;;;;;;;;5077811;28;20210;-73
2021/03/18 00:30:50;;;;;;;0.20;0.20;;;;;;;;;;5081239;28;20215;-73
2021/03/18 00:33:16;;;;;;;0.20;0.20;;;;;;;;;;5064715;28;20199;-73
2021/03/18 00:35:43;;;;;;;0.20;0.20;;;;;;;;;;5065263;28;20203;-71
2021/03/18 00:38:09;;;;;;;0.30;0.30;;;;;;;;;;5081039;28;20257;-72
2021/03/18 00:40:37;;;;;;;0.20;0.20;;;;;;;;;;5082997;28;20502;-71
2021/03/18 00:43:05;;;;;;;0.20;0.20;;;;;;;;;;5071787;28;20241;-72
2021/03/18 00:45:32;;;;;;;0.20;0.20;;;;;;;;;;5052697;28;20245;-72
2021/03/18 00:47:59;;;;;;;0.20;0.20;;;;;;;;;;5083137;28;20203;-73
2021/03/18 00:50:27;;;;;;;0.20;0.20;;;;;;;;;;5064086;28;20227;-72
2021/03/18 00:52:53;;;;;;;0.20;0.20;;;;;;;;;;5095073;28;20274;-70
2021/03/18 00:55:19;;;;;;;0.20;0.20;;;;;;;;;;5081730;28;20199;-71
2021/03/18 00:57:46;;;;;;;0.20;0.20;;;;;;;;;;5056001;28;20337;-73
2021/03/18 01:00:16;;;;;;;0.30;0.30;;;;;;;;;;5062935;28;20204;-74
2021/03/18 01:02:42;;;;;;;0.20;0.20;;;;;;;;;;5074053;28;20242;-73
2021/03/18 01:05:10;;;;;;;0.20;0.20;;;;;;;;;;5075686;28;20223;-71
2021/03/18 01:07:37;;;;;;;0.20;0.20;;;;;;;;;;5074666;28;20487;-72
2021/03/18 01:10:05;;;;;;;0.20;0.20;;;;;;;;;;5047546;28;20231;-72
2021/03/18 01:12:31;;;;;;;0.23;0.23;;;;;;;;;;5069810;28;20203;-72
2021/03/18 01:14:57;;;;;;;0.20;0.20;;;;;;;;;;5081117;28;20199;-73
2021/03/18 01:17:24;;;;;;;0.20;0.20;;;;;;;;;;5078991;28;20202;-72
2021/03/18 01:19:50;;;;;;;0.30;0.30;;;;;;;;;;5063735;28;20211;-72
2021/03/18 01:22:17;;;;;;;0.20;0.20;;;;;;;;;;5061921;28;20309;-73
2021/03/18 01:24:43;;;;;;;0.20;0.20;;;;;;;;;;5076771;28;20386;-71
2021/03/18 01:27:09;;;;;;;0.20;0.20;;;;;;;;;;5078723;28;20198;-72
2021/03/18 01:29:35;;;;;;;0.20;0.20;;;;;;;;;;5079029;28;20199;-73
2021/03/18 01:32:01;;;;;;;0.20;0.20;;;;;;;;;;5078126;28;20223;-73
2021/03/18 01:34:28;;;;;;;0.20;0.20;;;;;;;;;;5079121;28;20203;-73
2021/03/18 01:36:54;;;;;;;0.20;0.20;;;;;;;;;;5080474;28;20560;-73
2021/03/18 01:39:20;;;;;;;0.20;0.20;;;;;;;;;;5048081;28;20271;-74
2021/03/18 01:41:47;;;;;;;0.20;0.20;;;;;;;;;;5044656;28;20491;-73
2021/03/18 01:44:13;;;;;;;0.20;0.20;;;;;;;;;;5054716;28;20243;-73
2021/03/18 01:46:39;;;;;;;0.20;0.20;;;;;;;;;;5075320;28;20198;-73
2021/03/18 01:49:08;;;;;;;0.20;0.20;;;;;;;;;;5063645;28;20207;-72
2021/03/18 01:51:35;;;;;;;0.20;0.20;;;;;;;;;;5077367;28;20272;-72
2021/03/18 01:54:01;;;;;;;0.20;0.20;;;;;;;;;;5056152;28;20204;-73
2021/03/18 01:56:27;;;;;;;0.20;0.20;;;;;;;;;;5080802;28;20195;-72
2021/03/18 01:58:54;;;;;;;0.20;0.20;;;;;;;;;;5073744;28;20594;-72
2021/03/18 02:01:20;;;;;;;0.20;0.20;;;;;;;;;;5061580;28;20214;-72
2021/03/18 02:03:47;;;;;;;0.20;0.20;;;;;;;;;;5050762;28;20226;-72
2021/03/18 02:06:13;;;;;;;0.20;0.20;;;;;;;;;;5062418;28;20494;-71
2021/03/18 02:08:40;;;;;;;0.20;0.20;;;;;;;;;;5048940;28;20426;-72
2021/03/18 02:11:07;;;;;;;0.20;0.20;;;;;;;;;;5063596;28;20242;-72
2021/03/18 02:13:33;;;;;;;0.20;0.20;;;;;;;;;;5079399;28;20383;-72
2021/03/18 02:16:02;;;;;;;0.20;0.20;;;;;;;;;;5061552;28;20200;-72
2021/03/18 02:18:33;;;;;;;0.20;0.20;;;;;;;;;;5075701;28;20274;-75
2021/03/18 02:21:23;;;;;;;0.20;0.20;;;;;;;;;;5069648;28;20471;-72
2021/03/18 02:24:09;;;;;;;0.20;0.20;;;;;;;;;;5064854;28;20196;-72
2021/03/18 02:26:54;;;;;;;0.20;0.20;;;;;;;;;;5080766;28;20398;-73
2021/03/18 02:29:34;;;;;;;0.20;0.20;;;;;;;;;;5066992;28;20439;-72
2021/03/18 02:32:08;;;;;;;0.23;0.23;;;;;;;;;;5076844;28;20229;-72
2021/03/18 02:34:46;;;;;;;0.30;0.30;;;;;;;;;;5073254;28;20517;-72
2021/03/18 02:37:13;;;;;;;0.20;0.20;;;;;;;;;;5073034;28;20491;-72
2021/03/18 02:39:42;;;;;;;0.20;0.20;;;;;;;;;;5061069;28;20204;-72
2021/03/18 02:42:11;;;;;;;0.20;0.20;;;;;;;;;;5080659;28;20243;-72
2021/03/18 02:44:41;;;;;;;0.20;0.20;;;;;;;;;;5078709;28;20202;-73
2021/03/18 02:47:09;;;;;;;0.20;0.20;;;;;;;;;;5080259;28;20210;-72
2021/03/18 02:49:37;;;;;;;0.20;0.20;;;;;;;;;;5056992;28;20212;-72
2021/03/18 02:52:04;;;;;;;0.20;0.20;;;;;;;;;;5074084;28;20227;-72
2021/03/18 02:54:31;;;;;;;0.20;0.20;;;;;;;;;;5063626;28;20207;-73
2021/03/18 02:57:00;;;;;;;0.20;0.20;;;;;;;;;;5046831;28;20204;-72
2021/03/18 02:59:29;;;;;;;0.20;0.20;;;;;;;;;;5079103;28;20196;-71
2021/03/18 03:01:56;;;;;;;0.20;0.20;;;;;;;;;;5075582;28;20199;-73
2021/03/18 03:04:23;;;;;;;0.20;0.20;;;;;;;;;;5052927;28;20262;-72
2021/03/18 03:06:51;;;;;;;0.20;0.20;;;;;;;;;;5081165;28;20490;-72
2021/03/18 03:09:17;;;;;;;0.20;0.20;;;;;;;;;;5075842;28;20199;-72
2021/03/18 03:11:44;;;;;;;0.20;0.20;;;;;;;;;;5054814;28;20220;-71
2021/03/18 03:14:11;;;;;;;0.20;0.20;;;;;;;;;;5080053;28;20502;-72
2021/03/18 03:16:37;;;;;;;0.20;0.20;;;;;;;;;;5057579;28;20210;-72
2021/03/18 03:19:04;;;;;;;0.20;0.20;;;;;;;;;;5078779;28;20200;-72
2021/03/18 03:21:31;;;;;;;0.20;0.20;;;;;;;;;;5062378;28;20202;-74
2021/03/18 03:23:58;;;;;;;0.20;0.20;;;;;;;;;;5053577;28;20195;-74
2021/03/18 03:26:25;;;;;;;0.20;0.20;;;;;;;;;;5057962;28;20199;-71
2021/03/18 03:28:53;;;;;;;0.20;0.20;;;;;;;;;;5070357;28;20202;-72
2021/03/18 03:31:19;;;;;;;0.20;0.20;;;;;;;;;;5069502;28;20223;-72
2021/03/18 03:33:45;;;;;;;0.20;0.20;;;;;;;;;;5071724;28;20199;-71
2021/03/18 03:36:12;;;;;;;0.20;0.20;;;;;;;;;;5062371;28;20206;-72
2021/03/18 03:38:38;;;;;;;0.20;0.20;;;;;;;;;;5080326;28;20265;-72
2021/03/18 03:41:05;;;;;;;0.20;0.20;;;;;;;;;;5062493;28;20202;-72
2021/03/18 03:43:31;;;;;;;0.20;0.20;;;;;;;;;;5060807;28;20222;-72
2021/03/18 03:45:59;;;;;;;0.27;0.27;;;;;;;;;;5080067;28;20266;-73
2021/03/18 03:48:28;;;;;;;0.20;0.20;;;;;;;;;;5060991;28;20212;-71
2021/03/18 03:50:54;;;;;;;0.20;0.20;;;;;;;;;;5072922;28;20224;-71
2021/03/18 03:53:24;;;;;;;0.20;0.20;;;;;;;;;;5083955;28;20198;-72
2021/03/18 03:55:53;;;;;;;0.20;0.20;;;;;;;;;;5081660;28;20269;-72
2021/03/18 03:58:30;;;;;;;0.20;0.20;;;;;;;;;;5075376;28;20200;-72
2021/03/18 04:00:59;;;;;;;0.20;0.20;;;;;;;;;;5079379;28;20197;-72
2021/03/18 04:03:26;;;;;;;0.20;0.20;;;;;;;;;;5076346;28;20210;-72
2021/03/18 04:05:57;;;;;;;0.20;0.20;;;;;;;;;;5068847;28;20203;-72
2021/03/18 04:08:24;;;;;;;0.20;0.20;;;;;;;;;;5068042;28;20218;-73
2021/03/18 04:10:52;;;;;;;0.33;0.33;;;;;;;;;;5097563;28;20246;-73
2021/03/18 04:13:19;;;;;;;0.20;0.20;;;;;;;;;;5051958;28;20203;-72
2021/03/18 04:15:47;;;;;;;0.20;0.20;;;;;;;;;;5062834;28;20505;-74
2021/03/18 04:18:14;;;;;;;0.40;0.40;;;;;;;;;;5062643;28;20228;-73
2021/03/18 04:20:43;;;;;;;0.20;0.20;;;;;;;;;;5071669;28;20206;-73
2021/03/18 04:23:12;;;;;;;0.20;0.20;;;;;;;;;;5083623;28;20204;-73
2021/03/18 04:25:39;;;;;;;0.20;0.20;;;;;;;;;;5081966;28;20199;-73
2021/03/18 04:28:09;;;;;;;0.20;0.20;;;;;;;;;;5063693;28;20206;-71
2021/03/18 04:30:36;;;;;;;0.23;0.23;;;;;;;;;;5063218;28;20204;-72
2021/03/18 04:33:03;;;;;;;0.20;0.20;;;;;;;;;;5055197;28;20203;-73
2021/03/18 04:35:29;;;;;;;0.20;0.20;;;;;;;;;;5080243;28;20204;-72
2021/03/18 04:37:58;;;;;;;0.20;0.20;;;;;;;;;;5046095;28;20212;-73
2021/03/18 04:40:24;;;;;;;0.20;0.20;;;;;;;;;;5051870;28;20199;-73
2021/03/18 04:42:51;;;;;;;0.23;0.23;;;;;;;;;;5075193;28;20200;-73
2021/03/18 04:45:18;;;;;;;0.20;0.20;;;;;;;;;;5073160;28;20207;-71
2021/03/18 04:47:45;;;;;;;0.20;0.20;;;;;;;;;;5065898;28;20202;-73
2021/03/18 04:50:12;;;;;;;0.20;0.20;;;;;;;;;;5078207;28;20285;-73
2021/03/18 04:52:41;;;;;;;0.20;0.20;;;;;;;;;;5076802;28;20250;-73
2021/03/18 04:55:09;;;;;;;0.20;0.20;;;;;;;;;;5084444;28;20398;-72
2021/03/18 04:57:38;;;;;;;0.20;0.20;;;;;;;;;;5062406;28;20253;-73
2021/03/18 05:00:05;;;;;;;0.20;0.20;;;;;;;;;;5066041;28;20195;-73
2021/03/18 05:02:31;;;;;;;0.20;0.20;;;;;;;;;;5080150;28;20199;-72
2021/03/18 05:04:58;;;;;;;0.20;0.20;;;;;;;;;;5080470;28;20303;-73
2021/03/18 05:07:24;;;;;;;0.20;0.20;;;;;;;;;;5071150;28;20207;-72
2021/03/18 05:09:51;;;;;;;0.23;0.23;;;;;;;;;;5048918;28;20196;-73
2021/03/18 05:12:18;;;;;;;0.20;0.20;;;;;;;;;;5074240;28;20224;-72
2021/03/18 05:14:45;;;;;;;0.20;0.20;;;;;;;;;;5063749;28;20215;-73
2021/03/18 05:17:12;;;;;;;1.07;1.07;;;;;;;;;;5082307;28;20271;-73
2021/03/18 05:19:38;;;;;;;0.20;0.20;;;;;;;;;;5080142;28;20367;-74
2021/03/18 05:22:04;;;;;;;0.27;0.27;;;;;;;;;;5053786;28;20215;-72
2021/03/18 05:24:31;;;;;;;0.20;0.20;;;;;;;;;;5077209;28;20214;-73
2021/03/18 05:26:57;;;;;;;0.27;0.27;;;;;;;;;;5061111;28;20199;-73
2021/03/18 05:29:25;;;;;;;0.20;0.20;;;;;;;;;;5060709;28;20310;-73
2021/03/18 05:31:51;;;;;;;0.20;0.20;;;;;;;;;;5062340;28;20508;-74
2021/03/18 05:34:17;;;;;;;0.20;0.20;;;;;;;;;;5063612;28;20199;-72
2021/03/18 05:36:44;;;;;;;0.20;0.20;;;;;;;;;;5062651;28;20225;-73
2021/03/18 05:39:13;;;;;;;0.20;0.20;;;;;;;;;;5049716;28;20227;-74
2021/03/18 05:41:40;;;;;;;0.20;0.20;;;;;;;;;;5065751;28;20230;-73
2021/03/18 05:44:07;;;;;;;0.20;0.20;;;;;;;;;;5050652;28;20196;-73
2021/03/18 05:46:35;;;;;;;0.20;0.20;;;;;;;;;;5077976;28;20207;-74
2021/03/18 05:49:01;;;;;;;1.73;1.60;;;;;;;;;;5046602;28;20403;-73
2021/03/18 05:51:28;;;;;;;0.20;0.20;;;;;;;;;;5072988;28;20219;-73
2021/03/18 05:53:54;;;;;;;0.20;0.20;;;;;;;;;;5081764;28;20195;-73
2021/03/18 05:56:21;;;;;;;0.20;0.20;;;;;;;;;;5080058;28;20203;-72
2021/03/18 05:58:47;;;;;;;0.20;0.20;;;;;;;;;;5081092;28;20199;-73
2021/03/18 06:01:13;;;;;;;0.20;0.20;;;;;;;;;;5080213;28;20298;-72
2021/03/18 06:03:40;;;;;;;0.20;0.20;;;;;;;;;;5063238;28;20203;-72
2021/03/18 06:06:08;;;;;;;0.20;0.20;;;;;;;;;;5060382;28;20203;-75
2021/03/18 06:08:34;;;;;;;0.20;0.20;;;;;;;;;;5075897;28;20278;-72
2021/03/18 06:11:01;;;;;;;0.20;0.20;;;;;;;;;;5063410;28;20522;-72
2021/03/18 06:13:27;;;;;;;0.30;0.30;;;;;;;;;;5081013;28;20221;-72
2021/03/18 06:15:54;;;;;;;0.20;0.20;;;;;;;;;;5055847;28;20199;-72
2021/03/18 06:18:21;;;;;;;0.20;0.20;;;;;;;;;;5074365;28;20208;-74
2021/03/18 06:20:49;;;;;;;0.20;0.20;;;;;;;;;;5063372;28;20199;-72
2021/03/18 06:23:15;;;;;;;0.20;0.20;;;;;;;;;;5056338;28;20200;-73
2021/03/18 06:25:42;;;;;;;0.20;0.20;;;;;;;;;;5062531;28;20263;-72
2021/03/18 06:28:16;;;;;;;0.20;0.20;;;;;;;;;;5063037;28;20206;-73
2021/03/18 06:30:43;;;;;;;0.20;0.20;;;;;;;;;;5064753;28;20230;-73
2021/03/18 06:33:17;;;;;;;0.20;0.20;;;;;;;;;;5066427;28;20503;-72
2021/03/18 06:35:43;;;;;;;0.20;0.20;;;;;;;;;;5055912;28;20203;-73
2021/03/18 06:38:10;;;;;;;0.20;0.20;;;;;;;;;;5044899;28;20458;-73
2021/03/18 06:40:39;;;;;;;0.20;0.20;;;;;;;;;;5056413;28;20207;-74
2021/03/18 06:43:05;;;;;;;0.20;0.20;;;;;;;;;;5075569;28;20195;-73
2021/03/18 06:45:32;;;;;;;0.20;0.20;;;;;;;;;;5059743;28;20195;-72
2021/03/18 06:48:00;;;;;;;0.20;0.20;;;;;;;;;;5079431;28;20537;-71
2021/03/18 06:50:30;;;;;;;0.20;0.20;;;;;;;;;;5062339;28;20226;-73
2021/03/18 06:52:56;;;;;;;0.20;0.20;;;;;;;;;;5079590;28;20270;-72
2021/03/18 06:55:28;;;;;;;0.20;0.20;;;;;;;;;;5061615;28;20466;-73
2021/03/18 06:58:09;;;;;;;0.20;0.20;;;;;;;;;;5083081;28;20210;-73
2021/03/18 07:00:36;;;;;;;0.20;0.20;;;;;;;;;;5078945;28;20381;-74
2021/03/18 07:03:02;;;;;;;0.20;0.20;;;;;;;;;;5063245;28;20206;-73
2021/03/18 07:05:36;;;;;;;0.20;0.20;;;;;;;;;;5052918;28;20216;-73
2021/03/18 07:08:03;;;;;;;0.20;0.20;;;;;;;;;;5079071;28;20204;-72
2021/03/18 07:10:35;;;;;;;0.20;0.20;;;;;;;;;;5053277;28;20204;-72
2021/03/18 07:13:14;;;;;;;0.20;0.20;;;;;;;;;;5072139;28;20195;-71
2021/03/18 07:15:41;;;;;;;0.20;0.20;;;;;;;;;;5076878;28;20267;-72
2021/03/18 07:18:08;;;;;;;0.20;0.20;;;;;;;;;;5059529;28;20199;-71
2021/03/18 07:20:34;;;;;;;0.20;0.20;;;;;;;;;;5070876;28;20207;-72
2021/03/18 07:23:00;;;;;;;0.10;0.10;;;;;;;;;;5069299;28;20204;-66
2021/03/18 07:25:27;;;;;;;0.20;0.20;;;;;;;;;;5062864;28;20215;-66
2021/03/18 07:27:55;;;;;;;0.20;0.20;;;;;;;;;;5075337;28;20227;-67
2021/03/18 07:30:26;;;;;;;0.20;0.20;;;;;;;;;;5057571;28;20207;-69
2021/03/18 07:32:52;;;;;;;0.20;0.20;;;;;;;;;;5072595;28;20226;-71
2021/03/18 07:35:19;;;;;;;0.17;0.17;;;;;;;;;;5077959;28;20403;-70
2021/03/18 07:37:45;;;;;;;0.10;0.10;;;;;;;;;;5066305;28;20221;-69
2021/03/18 07:40:12;;;;;;;0.10;0.10;;;;;;;;;;5057653;28;20510;-66
2021/03/18 07:42:39;;;;;;;0.10;0.10;;;;;;;;;;5062035;28;20193;-68
2021/03/18 07:45:07;;;;;;;0.10;0.10;;;;;;;;;;5057918;28;20199;-68
2021/03/18 07:47:34;;;;;;;0.20;0.20;;;;;;;;;;5084711;28;20206;-68
2021/03/18 07:50:02;;;;;;;0.10;0.10;;;;;;;;;;5056440;28;20514;-68
2021/03/18 07:52:28;;;;;;;0.10;0.10;;;;;;;;;;5081794;28;20536;-68
2021/03/18 07:54:56;;;;;;;0.10;0.10;;;;;;;;;;5081750;28;20288;-67
2021/03/18 07:57:23;;;;;;;0.70;0.70;;;;;;;;;;5061492;28;20395;-67
2021/03/18 07:59:50;;;;;;;0.10;0.10;;;;;;;;;;5063584;28;20212;-68
2021/03/18 08:02:18;;;;;;;0.10;0.10;;;;;;;;;;5057726;28;20230;-69
2021/03/18 08:04:46;;;;;;;0.10;0.10;;;;;;;;;;5083722;28;20453;-68
2021/03/18 08:07:12;;;;;;;0.10;0.10;;;;;;;;;;5083067;28;20396;-68
2021/03/18 08:09:49;;;;;;;0.10;0.10;;;;;;;;;;5079209;28;20212;-68
2021/03/18 08:12:15;;;;;;;0.10;0.10;;;;;;;;;;5065734;28;20298;-67
2021/03/18 08:14:42;;;;;;;0.10;0.10;;;;;;;;;;5081052;28;20272;-70
2021/03/18 08:17:28;;;;;;;0.10;0.10;;;;;;;;;;5059670;28;20199;-67
2021/03/18 08:19:54;;;;;;;0.10;0.10;;;;;;;;;;5062615;28;20199;-67
2021/03/18 08:22:28;;;;;;;0.10;0.10;;;;;;;;;;5082374;28;20198;-68
2021/03/18 08:24:54;;;;;;;0.10;0.10;;;;;;;;;;5078476;28;20248;-69
2021/03/18 08:27:28;;;;;;;0.10;0.10;;;;;;;;;;5079771;28;20237;-68
2021/03/18 08:29:54;;;;;;;0.10;0.10;;;;;;;;;;5078070;28;20425;-66
2021/03/18 08:32:26;;;;;;;0.10;0.10;;;;;;;;;;5061784;28;20225;-69
2021/03/18 08:34:54;;;;;;;0.10;0.10;;;;;;;;;;5075063;28;20400;-67
2021/03/18 08:37:38;;;;;;;0.10;0.10;;;;;;;;;;5050097;28;20275;-68
2021/03/18 08:40:06;;;;;;;0.10;0.10;;;;;;;;;;5076581;28;20336;-67
2021/03/18 08:42:35;;;;;;;0.10;0.10;;;;;;;;;;5048659;28;20224;-66
2021/03/18 08:45:03;;;;;;;0.50;0.50;;;;;;;;;;5079424;28;20209;-68
2021/03/18 08:47:35;;;;;;;0.10;0.10;;;;;;;;;;5079920;28;20200;-70
2021/03/18 08:50:03;;;;;;;0.10;0.10;;;;;;;;;;5077976;28;20210;-67
2021/03/18 08:52:36;;;;;;;0.10;0.10;;;;;;;;;;5064939;28;20285;-67
2021/03/18 08:55:03;;;;;;;1.43;1.43;;;;;;;;;;5074918;28;20272;-67
2021/03/18 08:57:31;;;;;;;0.10;0.10;;;;;;;;;;5051359;28;20200;-71
2021/03/18 08:59:58;;;;;;;0.10;0.10;;;;;;;;;;5084956;28;20302;-74
2021/03/18 09:02:30;;;;;;;0.00;0.00;;;;;;;;;;5064729;28;20506;-75
2021/03/18 09:04:56;;;;;;;0.00;0.00;;;;;;;;;;5083608;28;20223;-75
2021/03/18 09:07:24;;;;;;;0.43;0.43;;;;;;;;;;5083000;28;20228;-75
2021/03/18 09:10:05;;;;;;;0.10;0.10;;;;;;;;;;5082742;28;20273;-75
2021/03/18 09:12:36;;;;;;;0.10;0.10;;;;;;;;;;5077786;28;20226;-76
2021/03/18 09:15:09;;;;;;;0.10;0.10;;;;;;;;;;5060883;28;20201;-74
2021/03/18 09:17:36;;;;;;;0.03;0.03;;;;;;;;;;5080336;28;20202;-76
2021/03/18 09:20:03;;;;;;;0.10;0.10;;;;;;;;;;5073569;28;20261;-75
2021/03/18 09:22:30;;;;;;;0.93;0.93;;;;;;;;;;5076760;28;20205;-75
2021/03/18 09:24:58;;;;;;;8.60;1.63;;;;;;;;;;5061335;28;20284;-75
2021/03/18 09:27:25;;;;;;;0.10;0.10;;;;;;;;;;5054962;28;20225;-76
2021/03/18 09:29:51;;;;;;;0.10;0.10;;;;;;;;;;5062311;28;20221;-74
2021/03/18 09:32:19;;;;;;;0.10;0.10;;;;;;;;;;5068392;28;20230;-75
2021/03/18 09:34:45;;;;;;;0.10;0.10;;;;;;;;;;5082216;28;20326;-74
2021/03/18 09:37:12;;;;;;;0.10;0.10;;;;;;;;;;5077226;28;20203;-75
2021/03/18 09:39:47;;;;;;;0.10;0.10;;;;;;;;;;5060667;28;20210;-73
2021/03/18 09:42:15;;;;;;;0.10;0.10;;;;;;;;;;5078255;28;20244;-74
2021/03/18 09:44:43;;;;;;;0.10;0.10;;;;;;;;;;5078755;28;20518;-74
2021/03/18 09:47:10;;;;;;;0.10;0.10;;;;;;;;;;5063640;28;20299;-76
2021/03/18 09:49:37;;;;;;;0.10;0.10;;;;;;;;;;5081699;28;20504;-75
2021/03/18 09:52:04;;;;;;;0.10;0.10;;;;;;;;;;5082250;28;20362;-74
2021/03/18 09:54:31;;;;;;;0.10;0.10;;;;;;;;;;5072361;28;20448;-75
2021/03/18 09:56:59;;;;;;;0.10;0.10;;;;;;;;;;5080309;28;20241;-75
2021/03/18 09:59:27;;;;;;;0.10;0.10;;;;;;;;;;5079869;28;21231;-76
2021/03/18 10:01:54;;;;;;;0.10;0.10;;;;;;;;;;5060884;28;20242;-76
2021/03/18 10:04:21;;;;;;;0.10;0.10;;;;;;;;;;5097279;28;20275;-75
2021/03/18 10:06:51;;;;;;;0.10;0.10;;;;;;;;;;5083457;28;20241;-75
2021/03/18 10:09:23;;;;;;;0.10;0.10;;;;;;;;;;5080646;28;20204;-77
2021/03/18 10:11:51;;;;;;;0.10;0.10;;;;;;;;;;5081573;28;20220;-76
2021/03/18 10:14:19;;;;;;;0.10;0.10;;;;;;;;;;5063501;28;20199;-75
2021/03/18 10:16:46;;;;;;;0.10;0.10;;;;;;;;;;5063823;28;20241;-75
2021/03/18 10:19:13;;;;;;;0.10;0.10;;;;;;;;;;5063859;28;20204;-74
2021/03/18 10:21:40;;;;;;;0.20;0.20;;;;;;;;;;5079790;28;20396;-75
2021/03/18 10:24:10;;;;;;;0.73;0.47;;;;;;;;;;5080705;28;20203;-75
2021/03/18 10:26:36;;;;;;;0.10;0.10;;;;;;;;;;5082330;28;20229;-74
2021/03/18 10:29:04;;;;;;;0.10;0.10;;;;;;;;;;5073606;28;20512;-76
2021/03/18 10:31:32;;;;;;;0.10;0.10;;;;;;;;;;5062405;28;20293;-75
2021/03/18 10:33:59;;;;;;;0.27;0.27;;;;;;;;;;5079675;28;20516;-75
2021/03/18 10:36:33;;;;;;;0.10;0.10;;;;;;;;;;5061506;28;20196;-77
2021/03/18 10:39:00;;;;;;;0.10;0.10;;;;;;;;;;5080329;28;20206;-78
2021/03/18 10:41:26;;;;;;;0.10;0.10;;;;;;;;;;5078469;28;20225;-76
2021/03/18 10:43:53;;;;;;;0.53;0.53;;;;;;;;;;5078571;28;20197;-75
2021/03/18 10:46:26;;;;;;;0.10;0.10;;;;;;;;;;5064585;28;20245;-74
2021/03/18 10:48:53;;;;;;;0.73;0.73;;;;;;;;;;5080542;28;20221;-75
2021/03/18 10:51:20;;;;;;;0.10;0.10;;;;;;;;;;5080938;28;20228;-76
2021/03/18 10:53:48;;;;;;;0.10;0.10;;;;;;;;;;5075482;28;20197;-76
2021/03/18 10:56:17;;;;;;;0.00;0.00;;;;;;;;;;5062238;28;20253;-77
2021/03/18 10:58:44;;;;;;;0.37;0.37;;;;;;;;;;5061741;28;20269;-76
2021/03/18 11:01:12;;;;;;;0.10;0.10;;;;;;;;;;5061810;28;20396;-74
2021/03/18 11:03:39;;;;;;;0.10;0.10;;;;;;;;;;5079692;28;20207;-77
2021/03/18 11:06:16;;;;;;;0.00;0.00;;;;;;;;;;5077579;28;20552;-76
2021/03/18 11:08:44;;;;;;;0.00;0.00;;;;;;;;;;5078457;28;20406;-75
2021/03/18 11:11:15;;;;;;;0.08;0.08;;;;;;;;;;5062823;28;20211;-76
2021/03/18 11:13:43;;;;;;;0.08;0.08;;;;;;;;;;5077654;28;20248;-75
2021/03/18 11:16:10;;;;;;;0.08;0.08;;;;;;;;;;5062225;28;20204;-75
2021/03/18 11:18:40;;;;;;;0.10;0.10;;;;;;;;;;5077326;28;20201;-75
2021/03/18 11:21:18;;;;;;;0.10;0.10;;;;;;;;;;5073641;28;20207;-72
2021/03/18 11:23:45;;;;;;;0.00;0.00;;;;;;;;;;5080203;28;20221;-73
2021/03/18 11:26:12;;;;;;;0.10;0.10;;;;;;;;;;5055293;28;20302;-74
2021/03/18 11:28:47;;;;;;;0.10;0.10;;;;;;;;;;5058748;28;20270;-76
2021/03/18 11:31:14;;;;;;;0.10;0.10;;;;;;;;;;5073432;28;20209;-75
2021/03/18 11:33:41;;;;;;;0.10;0.10;;;;;;;;;;5077360;28;20209;-75
2021/03/18 11:36:07;;;;;;;0.10;0.10;;;;;;;;;;5058852;28;20198;-74
2021/03/18 11:38:34;;;;;;;0.10;0.10;;;;;;;;;;5062420;28;20214;-75
2021/03/18 11:41:01;;;;;;;0.10;0.10;;;;;;;;;;5076383;28;20223;-71
2021/03/18 11:43:28;;;;;;;0.10;0.10;;;;;;;;;;5073681;28;20204;-70
2021/03/18 11:45:55;;;;;;;0.10;0.10;;;;;;;;;;5059873;28;20209;-73
2021/03/18 11:48:22;;;;;;;0.08;0.08;;;;;;;;;;5058961;28;20245;-70
2021/03/18 11:50:48;;;;;;;0.10;0.10;;;;;;;;;;5073209;28;20490;-70
2021/03/18 11:53:14;;;;;;;0.65;0.65;;;;;;;;;;5071219;28;20225;-69
2021/03/18 11:55:42;;;;;;;0.13;0.13;;;;;;;;;;5052768;28;20247;-71
2021/03/18 11:58:09;;;;;;;0.43;0.40;;;;;;;;;;5051813;28;20232;-73
2021/03/18 12:00:36;;;;;;;0.05;0.05;;;;;;;;;;5054338;28;20285;-71
2021/03/18 12:03:04;;;;;;;0.00;0.00;;;;;;;;;;5057943;28;21711;-69
2021/03/18 12:05:31;;;;;;;0.10;0.10;;;;;;;;;;5053238;28;20506;-71
2021/03/18 12:07:57;;;;;;;0.10;0.10;;;;;;;;;;5053711;28;20405;-68
2021/03/18 12:10:24;;;;;;;0.03;0.03;;;;;;;;;;5055828;28;20211;-64
2021/03/18 12:12:52;;;;;;;0.10;0.10;;;;;;;;;;5054964;28;20525;-65
2021/03/18 12:15:18;;;;;;;0.23;0.23;;;;;;;;;;5050919;28;20200;-67
2021/03/18 12:17:45;;;;;;;0.10;0.10;;;;;;;;;;5094175;28;20206;-65
2021/03/18 12:20:14;;;;;;;0.10;0.10;;;;;;;;;;5060472;28;20504;-67
2021/03/18 12:22:40;;;;;;;0.10;0.10;;;;;;;;;;5053191;28;20199;-64
2021/03/18 12:25:08;;;;;;;0.10;0.10;;;;;;;;;;5050176;28;20234;-64
2021/03/18 12:27:34;;;;;;;0.10;0.10;;;;;;;;;;5072501;28;20200;-65
2021/03/18 12:30:01;;;;;;;0.47;0.47;;;;;;;;;;5048537;28;20251;-65
2021/03/18 12:32:28;;;;;;;0.87;0.87;;;;;;;;;;5056262;28;20217;-65
2021/03/18 12:34:55;;;;;;;0.10;0.10;;;;;;;;;;5056699;28;20202;-67
2021/03/18 12:37:21;;;;;;;0.10;0.10;;;;;;;;;;5056416;28;20205;-67
2021/03/18 12:39:48;;;;;;;0.10;0.10;;;;;;;;;;5054558;28;20207;-66
2021/03/18 12:42:14;;;;;;;0.10;0.10;;;;;;;;;;5055571;28;20294;-66
2021/03/18 12:44:41;;;;;;;0.10;0.10;;;;;;;;;;5075922;28;20232;-66
2021/03/18 12:47:09;;;;;;;0.10;0.10;;;;;;;;;;5049484;28;20209;-75
2021/03/18 12:49:36;;;;;;;0.10;0.10;;;;;;;;;;5030168;28;554360;-73
2021/03/18 12:52:02;;;;;;;0.10;0.10;;;;;;;;;;5057147;28;20227;-75
2021/03/18 12:54:29;;;;;;;0.10;0.10;;;;;;;;;;5073810;28;20203;-74
2021/03/18 12:56:55;;;;;;;0.10;0.10;;;;;;;;;;5056268;28;20280;-74
2021/03/18 12:59:22;;;;;;;0.10;0.10;;;;;;;;;;5063517;28;20424;-73
2021/03/18 13:01:48;;;;;;;0.10;0.10;;;;;;;;;;5063605;28;20203;-73
2021/03/18 13:04:15;;;;;;;0.10;0.10;;;;;;;;;;5061719;28;20554;-73
2021/03/18 13:06:42;;;;;;;0.10;0.10;;;;;;;;;;5074767;28;20200;-74
2021/03/18 13:09:09;;;;;;;0.10;0.10;;;;;;;;;;5067513;28;20205;-74
2021/03/18 13:11:35;;;;;;;0.10;0.10;;;;;;;;;;5055397;28;20587;-73
2021/03/18 13:14:02;;;;;;;0.10;0.10;;;;;;;;;;5077662;28;20196;-77
2021/03/18 13:16:28;;;;;;;0.10;0.10;;;;;;;;;;5074336;28;20497;-74
2021/03/18 13:18:55;;;;;;;0.10;0.10;;;;;;;;;;5054721;28;20216;-74
2021/03/18 13:21:23;;;;;;;0.10;0.10;;;;;;;;;;5053487;28;20212;-75
2021/03/18 13:23:49;;;;;;;0.10;0.10;;;;;;;;;;5052920;28;20223;-74
2021/03/18 13:26:16;;;;;;;0.10;0.10;;;;;;;;;;5054014;28;20204;-75
2021/03/18 13:28:42;;;;;;;0.20;0.20;;;;;;;;;;5057073;28;20196;-74
2021/03/18 13:31:08;;;;;;;0.20;0.20;;;;;;;;;;5073515;28;20199;-75
2021/03/18 13:33:35;;;;;;;0.10;0.10;;;;;;;;;;5056423;28;20203;-75
2021/03/18 13:36:01;;;;;;;0.10;0.10;;;;;;;;;;5073615;28;20244;-74
2021/03/18 13:38:29;;;;;;;0.10;0.10;;;;;;;;;;5094123;28;20203;-75
2021/03/18 13:40:56;;;;;;;0.10;0.10;;;;;;;;;;5052332;28;20200;-75
2021/03/18 13:43:23;;;;;;;0.10;0.10;;;;;;;;;;5056364;28;20202;-74
2021/03/18 13:45:49;;;;;;;0.10;0.10;;;;;;;;;;5061634;28;20209;-74
2021/03/18 13:48:16;;;;;;;0.10;0.10;;;;;;;;;;5056888;28;20210;-75
2021/03/18 13:50:44;;;;;;;1.03;1.03;;;;;;;;;;5058303;28;20451;-75
2021/03/18 13:53:11;;;;;;;0.10;0.10;;;;;;;;;;5076879;28;20237;-76
2021/03/18 13:55:38;;;;;;;0.13;0.13;;;;;;;;;;5058869;28;20231;-75
2021/03/18 13:58:05;;;;;;;0.20;0.20;;;;;;;;;;5050228;28;20239;-76
2021/03/18 14:00:32;;;;;;;0.10;0.10;;;;;;;;;;5058727;28;20242;-75
2021/03/18 14:02:59;;;;;;;0.10;0.10;;;;;;;;;;5058838;28;20196;-75
2021/03/18 14:05:28;;;;;;;0.17;0.17;;;;;;;;;;5055200;28;20256;-77
2021/03/18 14:07:55;;;;;;;0.17;0.17;;;;;;;;;;5076605;28;20228;-74
2021/03/18 14:10:22;;;;;;;0.10;0.10;;;;;;;;;;5071154;28;20236;-74
2021/03/18 14:12:49;;;;;;;0.10;0.10;;;;;;;;;;5068930;28;20215;-73
2021/03/18 14:15:17;;;;;;;0.10;0.10;;;;;;;;;;5076138;28;20234;-74
2021/03/18 14:17:44;;;;;;;0.10;0.10;;;;;;;;;;5053480;28;20208;-76
2021/03/18 14:20:12;;;;;;;0.10;0.10;;;;;;;;;;5074567;28;20273;-74
2021/03/18 14:22:39;;;;;;;0.13;0.13;;;;;;;;;;5072567;28;20199;-75
2021/03/18 14:25:06;;;;;;;0.10;0.10;;;;;;;;;;5055228;28;20495;-74
2021/03/18 14:27:32;;;;;;;0.10;0.10;;;;;;;;;;5073242;28;20295;-75
2021/03/18 14:30:00;;;;;;;0.10;0.10;;;;;;;;;;5054796;28;20203;-75
2021/03/18 14:32:26;;;;;;;0.10;0.10;;;;;;;;;;5053954;28;20535;-73
2021/03/18 14:34:52;;;;;;;0.20;0.20;;;;;;;;;;5077187;28;20244;-74
2021/03/18 14:37:19;;;;;;;0.10;0.10;;;;;;;;;;5071020;28;20209;-75
2021/03/18 14:39:46;;;;;;;0.10;0.10;;;;;;;;;;5053317;28;20249;-76
2021/03/18 14:42:12;;;;;;;0.10;0.10;;;;;;;;;;5060371;28;20280;-76
2021/03/18 14:44:38;;;;;;;0.10;0.10;;;;;;;;;;5075486;28;20202;-76
2021/03/18 14:47:06;;;;;;;0.10;0.10;;;;;;;;;;5059535;28;20196;-76